Taylors, SC (29687)

9:59 AM EST on March 06, 2015 (GMT -0500)
Edward's Forest | Change Station
CLOSE
Current Station
Personal Weather Station
Location: Taylors, SC
Elevation: 1000 ft
Nearby Weather Stations

Elev 1000 ft 34.93 °N, 82.33 °W | Updated 9 seconds ago

Clear
Clear
32.9 °F
Feels Like 33 °F
N
2.0
Wind Variable Wind from NE
Gusts 7.0 mph

Today
High -- | Low -- °F
--% Chance of Precip.
Yesterday
High -- | Low -- °F
Precip. -- in
6:52 AM 6:29 PM
Full, 99% visible
Pressure 30.47 in
Visibility 10.0 miles
Clouds Clear
Windchill 33 °F
Dew Point 22 °F
Humidity 63%
Rainfall in
Snow Depth Not available.
UV 2 out of 12
Pollen 6.40 out of 12
Air Quality Not available.
Flu Activity Not available.
METAR KGMU 061353Z 07009KT 10SM CLR 00/M08 A3045 RMK AO2 SLP318 T00001078

More Conditions Fewer Conditions

Pressure 30.47 in
Visibility 10.0 miles
Clouds Clear
Windchill 33 °F
Dew Point 22 °F
Humidity 63%
Rainfall in
Snow Depth Not available.
UV 2 out of 12
Pollen 6.40 out of 12
Air Quality Not available.
Flu Activity Not available.
METAR KGMU 061353Z 07009KT 10SM CLR 00/M08 A3045 RMK AO2 SLP318 T00001078

More Conditions Fewer Conditions

10-Day Weather Forecast

Almanac

Astronomy

Mar. 06, 2015 Rise Set
Actual Time
Civil Twilight
Nautical Twilight
Astronomical Twilight
Moon
Length of Visible Light
Length of Day
Tomorrow will be .
, % of the Moon is Illuminated

Today's Extremes

State Highs State Lows

Community

WunderPhotos

Upload Photos

1,803,285 photos uploaded!

WunderBlogs® & News

Nearby

Air Quality

  Air Quality AQ Index Pollutant
Not available.

Snow Depth

Station Depth Elevation

Earthquake Activity

City Distance Mag. Time & Date
Minimum magnitude displayed is 2.5.

Coastal Water Temperatures

Place Temperature

Nearby Weather Stations